METAR Data
IDs: Format: Raw Decoded Include TAF

Data at: 2113 UTC 18 Apr 2021

METAR for:KGDP (Guadalupe Pass, TX, US)
Text:KGDP 182051Z AUTO 05024KT 8SM BKN018 BKN036 OVC046 07/M01 A3014 RMK AO2 PK WND 05032/1955 SLP192 T00721011 58002
Temperature: 7.2°C ( 45°F)
Dewpoint: -1.1°C ( 30°F) [RH = 56%]
Pressure (altimeter):30.14 inches Hg (1020.7 mb) [Sea level pressure: 1019.2 mb]
Winds:from the NE (50 degrees) at 28 MPH (24 knots; 12.3 m/s)
Visibility: 8 sm ( 13 km)
Ceiling:1800 feet AGL
Clouds: broken clouds at 1800 feet AGL, broken clouds at 3600 feet AGL, overcast cloud deck at 4600 feet AGL
QC Flag:automated observation with no human augmentation
Text:KGDP 182049Z AUTO 05025KT 8SM BKN018 BKN036 OVC046 07/M01 A3015 RMK AO2 PK WND 05032/1955
Temperature: 7.0°C ( 45°F)
Dewpoint: -1.0°C ( 30°F) [RH = 57%]
Pressure (altimeter):30.15 inches Hg (1021.1 mb)
Winds:from the NE (50 degrees) at 29 MPH (25 knots; 12.9 m/s)
Visibility: 8 sm ( 13 km)
Ceiling:1800 feet AGL
Clouds: broken clouds at 1800 feet AGL, broken clouds at 3600 feet AGL, overcast cloud deck at 4600 feet AGL
QC Flag:automated observation with no human augmentation
Text:KGDP 182002Z AUTO 05028KT 8SM SCT017 OVC033 06/M01 A3014 RMK AO2 PK WND 05032/1955 T00611011
Temperature: 6.1°C ( 43°F)
Dewpoint: -1.1°C ( 30°F) [RH = 60%]
Pressure (altimeter):30.14 inches Hg (1020.7 mb)
Winds:from the NE (50 degrees) at 32 MPH (28 knots; 14.4 m/s)
Visibility: 8 sm ( 13 km)
Ceiling:3300 feet AGL
Clouds: scattered clouds at 1700 feet AGL, overcast cloud deck at 3300 feet AGL
QC Flag:automated observation with no human augmentation
Text:KGDP 181951Z AUTO 05029KT 8SM BKN016 OVC032 06/M01 A3015 RMK AO2 PK WND 04037/1901 SLP199 T00561011
Temperature: 5.6°C ( 42°F)
Dewpoint: -1.1°C ( 30°F) [RH = 62%]
Pressure (altimeter):30.15 inches Hg (1021.1 mb) [Sea level pressure: 1019.9 mb]
Winds:from the NE (50 degrees) at 33 MPH (29 knots; 14.9 m/s)
Visibility: 8 sm ( 13 km)
Ceiling:1600 feet AGL
Clouds: broken clouds at 1600 feet AGL, overcast cloud deck at 3200 feet AGL
QC Flag:automated observation with no human augmentation
Text:KGDP 181851Z AUTO 04031KT 8SM FEW013 OVC031 04/M01 A3015 RMK AO2 PK WND 05036/1759 SLP205 T00441011
Temperature: 4.4°C ( 40°F)
Dewpoint: -1.1°C ( 30°F) [RH = 67%]
Pressure (altimeter):30.15 inches Hg (1021.1 mb) [Sea level pressure: 1020.5 mb]
Winds:from the NE (40 degrees) at 36 MPH (31 knots; 15.9 m/s)
Visibility: 8 sm ( 13 km)
Ceiling:3100 feet AGL
Clouds: few clouds at 1300 feet AGL, overcast cloud deck at 3100 feet AGL
QC Flag:automated observation with no human augmentation
Text:KGDP 181824Z AUTO 05031KT 8SM SCT011 OVC032 04/M01 A3016 RMK AO2 PK WND 05036/1759 T00391011
Temperature: 3.9°C ( 39°F)
Dewpoint: -1.1°C ( 30°F) [RH = 70%]
Pressure (altimeter):30.16 inches Hg (1021.4 mb)
Winds:from the NE (50 degrees) at 36 MPH (31 knots; 15.9 m/s)
Visibility: 8 sm ( 13 km)
Ceiling:3200 feet AGL
Clouds: scattered clouds at 1100 feet AGL, overcast cloud deck at 3200 feet AGL
QC Flag:automated observation with no human augmentation
Text:KGDP 181651Z AUTO 05032KT 7SM BKN007 BKN013 OVC033 02/M01 A3017 RMK AO2 PK WND 05037/1609 SLP216 T00221011
Temperature: 2.2°C ( 36°F)
Dewpoint: -1.1°C ( 30°F) [RH = 79%]
Pressure (altimeter):30.17 inches Hg (1021.8 mb) [Sea level pressure: 1021.6 mb]
Winds:from the NE (50 degrees) at 37 MPH (32 knots; 16.5 m/s)
Visibility: 7 sm ( 11 km)
Ceiling:700 feet AGL
Clouds: broken clouds at 700 feet AGL, broken clouds at 1300 feet AGL, overcast cloud deck at 3300 feet AGL
QC Flag:automated observation with no human augmentation
Text:KGDP 181551Z AUTO 05030KT 6SM HZ BKN006 OVC010 02/M01 A3018 RMK AO2 PK WND 04040/1500 SLP221 T00221011
Temperature: 2.2°C ( 36°F)
Dewpoint: -1.1°C ( 30°F) [RH = 79%]
Pressure (altimeter):30.18 inches Hg (1022.1 mb) [Sea level pressure: 1022.1 mb]
Winds:from the NE (50 degrees) at 34 MPH (30 knots; 15.4 m/s)
Visibility: 6 sm ( 10 km)
Ceiling:600 feet AGL
Clouds: broken clouds at 600 feet AGL, overcast cloud deck at 1000 feet AGL
Weather:HZ (haze)
QC Flag:automated observation with no human augmentation
Text:KGDP 181451Z AUTO 05033KT 7SM BKN007 OVC041 02/M01 A3018 RMK AO2 PK WND 04039/1415 CIG 006V010 SLP220 T00221011 53010
Temperature: 2.2°C ( 36°F)
Dewpoint: -1.1°C ( 30°F) [RH = 79%]
Pressure (altimeter):30.18 inches Hg (1022.1 mb) [Sea level pressure: 1022.0 mb]
Winds:from the NE (50 degrees) at 38 MPH (33 knots; 17.0 m/s)
Visibility: 7 sm ( 11 km)
Ceiling:700 feet AGL
Clouds: broken clouds at 700 feet AGL, overcast cloud deck at 4100 feet AGL
QC Flag:automated observation with no human augmentation
Text:KGDP 181408Z AUTO 04035KT 7SM BKN009 OVC044 02/M01 A3017 RMK AO2 PK WND 04039/1407 CIG 007V012 T00221011
Temperature: 2.2°C ( 36°F)
Dewpoint: -1.1°C ( 30°F) [RH = 79%]
Pressure (altimeter):30.17 inches Hg (1021.8 mb)
Winds:from the NE (40 degrees) at 40 MPH (35 knots; 18.0 m/s)
Visibility: 7 sm ( 11 km)
Ceiling:900 feet AGL
Clouds: broken clouds at 900 feet AGL, overcast cloud deck at 4400 feet AGL
QC Flag:automated observation with no human augmentation
Text:KGDP 181351Z AUTO 04036KT 7SM BKN012 OVC043 02/M02 A3016 RMK AO2 PK WND 04041/1332 SLP214 T00171017
Temperature: 1.7°C ( 35°F)
Dewpoint: -1.7°C ( 29°F) [RH = 78%]
Pressure (altimeter):30.16 inches Hg (1021.4 mb) [Sea level pressure: 1021.4 mb]
Winds:from the NE (40 degrees) at 41 MPH (36 knots; 18.5 m/s)
Visibility: 7 sm ( 11 km)
Ceiling:1200 feet AGL
Clouds: broken clouds at 1200 feet AGL, overcast cloud deck at 4300 feet AGL
QC Flag:automated observation with no human augmentation
Text:KGDP 181322Z AUTO 04034KT 8SM SCT008 BKN012 OVC075 02/M02 A3016 RMK AO2 PK WND 04040/1301 T00171017
Temperature: 1.7°C ( 35°F)
Dewpoint: -1.7°C ( 29°F) [RH = 78%]
Pressure (altimeter):30.16 inches Hg (1021.4 mb)
Winds:from the NE (40 degrees) at 39 MPH (34 knots; 17.5 m/s)
Visibility: 8 sm ( 13 km)
Ceiling:1200 feet AGL
Clouds: scattered clouds at 800 feet AGL, broken clouds at 1200 feet AGL, overcast cloud deck at 7500 feet AGL
QC Flag:automated observation with no human augmentation
Text:KGDP 181308Z AUTO 05036KT 8SM FEW008 SCT014 OVC075 02/M02 A3014 RMK AO2 PK WND 04040/1301 T00171017
Temperature: 1.7°C ( 35°F)
Dewpoint: -1.7°C ( 29°F) [RH = 78%]
Pressure (altimeter):30.14 inches Hg (1020.7 mb)
Winds:from the NE (50 degrees) at 41 MPH (36 knots; 18.5 m/s)
Visibility: 8 sm ( 13 km)
Ceiling:7500 feet AGL
Clouds: few clouds at 800 feet AGL, scattered clouds at 1400 feet AGL, overcast cloud deck at 7500 feet AGL
QC Flag:automated observation with no human augmentation
Text:KGDP 181251Z AUTO 04038KT 7SM OVC080 01/M02 A3014 RMK AO2 PK WND 04040/1218 SLP206 T00111017
Temperature: 1.1°C ( 34°F)
Dewpoint: -1.7°C ( 29°F) [RH = 82%]
Pressure (altimeter):30.14 inches Hg (1020.7 mb) [Sea level pressure: 1020.6 mb]
Winds:from the NE (40 degrees) at 44 MPH (38 knots; 19.5 m/s)
Visibility: 7 sm ( 11 km)
Ceiling:8000 feet AGL
Clouds: overcast cloud deck at 8000 feet AGL
QC Flag:automated observation with no human augmentation
Text:KGDP 181151Z AUTO 04037KT 9SM FEW046 SCT065 OVC110 02/M02 A3014 RMK AO2 PK WND 04042/1122 SNB18E37 SLP202 P0000 60000 T00171017 10033 20017 53000
Temperature: 1.7°C ( 35°F)
Dewpoint: -1.7°C ( 29°F) [RH = 78%]
Pressure (altimeter):30.14 inches Hg (1020.7 mb) [Sea level pressure: 1020.2 mb]
Winds:from the NE (40 degrees) at 43 MPH (37 knots; 19.0 m/s)
Visibility: 9 sm ( 14 km)
Ceiling:11000 feet AGL
Clouds: few clouds at 4600 feet AGL, scattered clouds at 6500 feet AGL, overcast cloud deck at 11000 feet AGL
QC Flag:automated observation with no human augmentation
Text:KGDP 181051Z AUTO 04038KT 10SM OVC049 02/M03 A3013 RMK AO2 PK WND 05042/1050 SLP194 T00221028
Temperature: 2.2°C ( 36°F)
Dewpoint: -2.8°C ( 27°F) [RH = 69%]
Pressure (altimeter):30.13 inches Hg (1020.4 mb) [Sea level pressure: 1019.4 mb]
Winds:from the NE (40 degrees) at 44 MPH (38 knots; 19.5 m/s)
Visibility:10 or more sm (16+ km)
Ceiling:4900 feet AGL
Clouds: overcast cloud deck at 4900 feet AGL
QC Flag:automated observation with no human augmentation
Text:KGDP 180951Z AUTO 04029KT 10SM BKN047 OVC090 03/M04 A3015 RMK AO2 PK WND 04036/0852 SLP200 T00281039
Temperature: 2.8°C ( 37°F)
Dewpoint: -3.9°C ( 25°F) [RH = 61%]
Pressure (altimeter):30.15 inches Hg (1021.1 mb) [Sea level pressure: 1020.0 mb]
Winds:from the NE (40 degrees) at 33 MPH (29 knots; 14.9 m/s)
Visibility:10 or more sm (16+ km)
Ceiling:4700 feet AGL
Clouds: broken clouds at 4700 feet AGL, overcast cloud deck at 9000 feet AGL
QC Flag:automated observation with no human augmentation
Text:KGDP 180851Z AUTO 04034KT 10SM BKN075 OVC095 03/M04 A3014 RMK AO2 PK WND 05041/0819 SLP199 T00331044 51010
Temperature: 3.3°C ( 38°F)
Dewpoint: -4.4°C ( 24°F) [RH = 57%]
Pressure (altimeter):30.14 inches Hg (1020.7 mb) [Sea level pressure: 1019.9 mb]
Winds:from the NE (40 degrees) at 39 MPH (34 knots; 17.5 m/s)
Visibility:10 or more sm (16+ km)
Ceiling:7500 feet AGL
Clouds: broken clouds at 7500 feet AGL, overcast cloud deck at 9500 feet AGL
QC Flag:automated observation with no human augmentation
Text:KGDP 180751Z AUTO 04034KT 10SM SCT075 BKN100 03/M04 A3014 RMK AO2 PK WND 04038/0701 SLP201 T00281044
Temperature: 2.8°C ( 37°F)
Dewpoint: -4.4°C ( 24°F) [RH = 59%]
Pressure (altimeter):30.14 inches Hg (1020.7 mb) [Sea level pressure: 1020.1 mb]
Winds:from the NE (40 degrees) at 39 MPH (34 knots; 17.5 m/s)
Visibility:10 or more sm (16+ km)
Ceiling:10000 feet AGL
Clouds: scattered clouds at 7500 feet AGL, broken clouds at 10000 feet AGL
QC Flag:automated observation with no human augmentation
Text:KGDP 180651Z AUTO 05032KT 10SM SCT110 02/M04 A3013 RMK AO2 PK WND 05041/0617 SLP197 T00221039 400560011
Temperature: 2.2°C ( 36°F)
Dewpoint: -3.9°C ( 25°F) [RH = 64%]
Pressure (altimeter):30.13 inches Hg (1020.4 mb) [Sea level pressure: 1019.7 mb]
Winds:from the NE (50 degrees) at 37 MPH (32 knots; 16.5 m/s)
Visibility:10 or more sm (16+ km)
Ceiling:at least 12,000 feet AGL
Clouds: scattered clouds at 11000 feet AGL
QC Flag:automated observation with no human augmentation
Text:KGDP 180551Z AUTO 05037KT 10SM FEW085 03/M04 A3011 RMK AO2 PK WND 05039/0551 SLP192 T00281039 10050 20017 50001
Temperature: 2.8°C ( 37°F)
Dewpoint: -3.9°C ( 25°F) [RH = 61%]
Pressure (altimeter):30.11 inches Hg (1019.7 mb) [Sea level pressure: 1019.2 mb]
Winds:from the NE (50 degrees) at 43 MPH (37 knots; 19.0 m/s)
Visibility:10 or more sm (16+ km)
Ceiling:at least 12,000 feet AGL
Clouds: few clouds at 8500 feet AGL
QC Flag:automated observation with no human augmentation
Text:KGDP 180451Z AUTO 04034KT 10SM CLR 03/M04 A3012 RMK AO2 PK WND 04039/0427 SLP198 T00281039
Temperature: 2.8°C ( 37°F)
Dewpoint: -3.9°C ( 25°F) [RH = 61%]
Pressure (altimeter):30.12 inches Hg (1020.1 mb) [Sea level pressure: 1019.8 mb]
Winds:from the NE (40 degrees) at 39 MPH (34 knots; 17.5 m/s)
Visibility:10 or more sm (16+ km)
Ceiling:at least 12,000 feet AGL
Clouds:sky clear below 12,000 feet AGL
QC Flag:automated observation with no human augmentation
Text:KGDP 180351Z AUTO 04029KT 10SM CLR 02/M03 A3012 RMK AO2 PK WND 05033/0256 SLP201 T00221033
Temperature: 2.2°C ( 36°F)
Dewpoint: -3.3°C ( 26°F) [RH = 67%]
Pressure (altimeter):30.12 inches Hg (1020.1 mb) [Sea level pressure: 1020.1 mb]
Winds:from the NE (40 degrees) at 33 MPH (29 knots; 14.9 m/s)
Visibility:10 or more sm (16+ km)
Ceiling:at least 12,000 feet AGL
Clouds:sky clear below 12,000 feet AGL
QC Flag:automated observation with no human augmentation
Text:KGDP 180251Z AUTO 05031KT 10SM CLR 02/M03 A3010 RMK AO2 PK WND 05033/0154 SLP193 T00221033 53012 $
Temperature: 2.2°C ( 36°F)
Dewpoint: -3.3°C ( 26°F) [RH = 67%]
Pressure (altimeter):30.10 inches Hg (1019.4 mb) [Sea level pressure: 1019.3 mb]
Winds:from the NE (50 degrees) at 36 MPH (31 knots; 15.9 m/s)
Visibility:10 or more sm (16+ km)
Ceiling:at least 12,000 feet AGL
Clouds:sky clear below 12,000 feet AGL
QC Flag:automated observation with no human augmentation; SOME DATA ABOVE MAY BE INACCURATE!!!"$" is an indication the sensor requires maintenance.
Text:KGDP 180151Z AUTO 05030KT 10SM CLR 03/M03 A3008 RMK AO2 PK WND 05035/0103 SLP184 T00281033 $
Temperature: 2.8°C ( 37°F)
Dewpoint: -3.3°C ( 26°F) [RH = 64%]
Pressure (altimeter):30.08 inches Hg (1018.7 mb) [Sea level pressure: 1018.4 mb]
Winds:from the NE (50 degrees) at 34 MPH (30 knots; 15.4 m/s)
Visibility:10 or more sm (16+ km)
Ceiling:at least 12,000 feet AGL
Clouds:sky clear below 12,000 feet AGL
QC Flag:automated observation with no human augmentation; SOME DATA ABOVE MAY BE INACCURATE!!!"$" is an indication the sensor requires maintenance.
Text:KGDP 180051Z AUTO 05029KT 9SM CLR 03/M03 A3006 RMK AO2 PK WND 05035/2353 SLP179 T00331033 $
Temperature: 3.3°C ( 38°F)
Dewpoint: -3.3°C ( 26°F) [RH = 62%]
Pressure (altimeter):30.06 inches Hg (1018.0 mb) [Sea level pressure: 1017.9 mb]
Winds:from the NE (50 degrees) at 33 MPH (29 knots; 14.9 m/s)
Visibility: 9 sm ( 14 km)
Ceiling:at least 12,000 feet AGL
Clouds:sky clear below 12,000 feet AGL
QC Flag:automated observation with no human augmentation; SOME DATA ABOVE MAY BE INACCURATE!!!"$" is an indication the sensor requires maintenance.
Text:KGDP 172351Z AUTO 05029KT 9SM CLR 04/M03 A3006 RMK AO2 PK WND 05039/2253 SLP177 60000 T00441033 10056 20028 55006 $
Temperature: 4.4°C ( 40°F)
Dewpoint: -3.3°C ( 26°F) [RH = 57%]
Pressure (altimeter):30.06 inches Hg (1018.0 mb) [Sea level pressure: 1017.7 mb]
Winds:from the NE (50 degrees) at 33 MPH (29 knots; 14.9 m/s)
Visibility: 9 sm ( 14 km)
Ceiling:at least 12,000 feet AGL
Clouds:sky clear below 12,000 feet AGL
QC Flag:automated observation with no human augmentation; SOME DATA ABOVE MAY BE INACCURATE!!!"$" is an indication the sensor requires maintenance.
Text:KGDP 172251Z AUTO 04033G38KT 9SM CLR 06/M03 A3005 RMK AO2 PK WND 05041/2227 SLP167 T00561033 $
Temperature: 5.6°C ( 42°F)
Dewpoint: -3.3°C ( 26°F) [RH = 53%]
Pressure (altimeter):30.05 inches Hg (1017.7 mb) [Sea level pressure: 1016.7 mb]
Winds:from the NE (40 degrees) at 38 MPH (33 knots; 17.0 m/s) gusting to 44 MPH (38 knots; 19.5 m/s)
Visibility: 9 sm ( 14 km)
Ceiling:at least 12,000 feet AGL
Clouds:sky clear below 12,000 feet AGL
QC Flag:automated observation with no human augmentation; SOME DATA ABOVE MAY BE INACCURATE!!!"$" is an indication the sensor requires maintenance.
Text:KGDP 172151Z AUTO 05033KT 9SM SCT080 BKN100 06/M03 A3005 RMK AO2 PK WND 05039/2142 SLP167 T00561033 $
Temperature: 5.6°C ( 42°F)
Dewpoint: -3.3°C ( 26°F) [RH = 53%]
Pressure (altimeter):30.05 inches Hg (1017.7 mb) [Sea level pressure: 1016.7 mb]
Winds:from the NE (50 degrees) at 38 MPH (33 knots; 17.0 m/s)
Visibility: 9 sm ( 14 km)
Ceiling:10000 feet AGL
Clouds: scattered clouds at 8000 feet AGL, broken clouds at 10000 feet AGL
QC Flag:automated observation with no human augmentation; SOME DATA ABOVE MAY BE INACCURATE!!!"$" is an indication the sensor requires maintenance.
Text:KGDP 172051Z AUTO 05030G36KT 8SM OVC075 04/M03 A3009 RMK AO2 PK WND 04036/2045 SLP182 60000 T00391033 58009 $
Temperature: 3.9°C ( 39°F)
Dewpoint: -3.3°C ( 26°F) [RH = 59%]
Pressure (altimeter):30.09 inches Hg (1019.0 mb) [Sea level pressure: 1018.2 mb]
Winds:from the NE (50 degrees) at 34 MPH (30 knots; 15.4 m/s) gusting to 41 MPH (36 knots; 18.5 m/s)
Visibility: 8 sm ( 13 km)
Ceiling:7500 feet AGL
Clouds: overcast cloud deck at 7500 feet AGL
QC Flag:automated observation with no human augmentation; SOME DATA ABOVE MAY BE INACCURATE!!!"$" is an indication the sensor requires maintenance.
Text:KGDP 171951Z AUTO 05030KT 8SM FEW015 OVC070 04/M03 A3011 RMK AO2 PK WND 05037/1859 SLP188 T00391028 $
Temperature: 3.9°C ( 39°F)
Dewpoint: -2.8°C ( 27°F) [RH = 62%]
Pressure (altimeter):30.11 inches Hg (1019.7 mb) [Sea level pressure: 1018.8 mb]
Winds:from the NE (50 degrees) at 34 MPH (30 knots; 15.4 m/s)
Visibility: 8 sm ( 13 km)
Ceiling:7000 feet AGL
Clouds: few clouds at 1500 feet AGL, overcast cloud deck at 7000 feet AGL
QC Flag:automated observation with no human augmentation; SOME DATA ABOVE MAY BE INACCURATE!!!"$" is an indication the sensor requires maintenance.
Text:KGDP 171851Z AUTO 05029KT 8SM FEW019 OVC070 04/M03 A3011 RMK AO2 PK WND 04041/1822 SNE1752 SLP189 P0000 T00391033 $
Temperature: 3.9°C ( 39°F)
Dewpoint: -3.3°C ( 26°F) [RH = 59%]
Pressure (altimeter):30.11 inches Hg (1019.7 mb) [Sea level pressure: 1018.9 mb]
Winds:from the NE (50 degrees) at 33 MPH (29 knots; 14.9 m/s)
Visibility: 8 sm ( 13 km)
Ceiling:7000 feet AGL
Clouds: few clouds at 1900 feet AGL, overcast cloud deck at 7000 feet AGL
QC Flag:automated observation with no human augmentation; SOME DATA ABOVE MAY BE INACCURATE!!!"$" is an indication the sensor requires maintenance.
Text:KGDP 171751Z AUTO 06030G37KT 6SM -SN FEW017 BKN080 03/M03 A3012 RMK AO2 PK WND 04039/1734 UPB02E15SNB41 SLP190 P0000 60000 T00281033 10033 20011 50002 $
Temperature: 2.8°C ( 37°F)
Dewpoint: -3.3°C ( 26°F) [RH = 64%]
Pressure (altimeter):30.12 inches Hg (1020.1 mb) [Sea level pressure: 1019.0 mb]
Winds:from the ENE (60 degrees) at 34 MPH (30 knots; 15.4 m/s) gusting to 43 MPH (37 knots; 19.0 m/s)
Visibility: 6 sm ( 10 km)
Ceiling:8000 feet AGL
Clouds: few clouds at 1700 feet AGL, broken clouds at 8000 feet AGL
Weather:-SN (light snow)
QC Flag:automated observation with no human augmentation; SOME DATA ABOVE MAY BE INACCURATE!!!"$" is an indication the sensor requires maintenance.
Text:KGDP 171651Z AUTO 06028KT 8SM FEW017 OVC080 02/M03 A3013 RMK AO2 PK WND 06036/1634 SLP186 T00221033 $
Temperature: 2.2°C ( 36°F)
Dewpoint: -3.3°C ( 26°F) [RH = 67%]
Pressure (altimeter):30.13 inches Hg (1020.4 mb) [Sea level pressure: 1018.6 mb]
Winds:from the ENE (60 degrees) at 32 MPH (28 knots; 14.4 m/s)
Visibility: 8 sm ( 13 km)
Ceiling:8000 feet AGL
Clouds: few clouds at 1700 feet AGL, overcast cloud deck at 8000 feet AGL
QC Flag:automated observation with no human augmentation; SOME DATA ABOVE MAY BE INACCURATE!!!"$" is an indication the sensor requires maintenance.
Text:KGDP 171551Z AUTO 05030KT 8SM OVC090 02/M03 A3013 RMK AO2 PK WND 05039/1503 SLP182 T00221033 $
Temperature: 2.2°C ( 36°F)
Dewpoint: -3.3°C ( 26°F) [RH = 67%]
Pressure (altimeter):30.13 inches Hg (1020.4 mb) [Sea level pressure: 1018.2 mb]
Winds:from the NE (50 degrees) at 34 MPH (30 knots; 15.4 m/s)
Visibility: 8 sm ( 13 km)
Ceiling:9000 feet AGL
Clouds: overcast cloud deck at 9000 feet AGL
QC Flag:automated observation with no human augmentation; SOME DATA ABOVE MAY BE INACCURATE!!!"$" is an indication the sensor requires maintenance.
Text:KGDP 171451Z AUTO 06034G38KT 8SM OVC100 02/M03 A3011 RMK AO2 PK WND 05042/1412 SLP173 T00221033 53009 $
Temperature: 2.2°C ( 36°F)
Dewpoint: -3.3°C ( 26°F) [RH = 67%]
Pressure (altimeter):30.11 inches Hg (1019.7 mb) [Sea level pressure: 1017.3 mb]
Winds:from the ENE (60 degrees) at 39 MPH (34 knots; 17.5 m/s) gusting to 44 MPH (38 knots; 19.5 m/s)
Visibility: 8 sm ( 13 km)
Ceiling:10000 feet AGL
Clouds: overcast cloud deck at 10000 feet AGL
QC Flag:automated observation with no human augmentation; SOME DATA ABOVE MAY BE INACCURATE!!!"$" is an indication the sensor requires maintenance.
Text:KGDP 171351Z AUTO 05038KT 8SM OVC110 01/M03 A3011 RMK AO2 PK WND 05042/1311 SLP167 T00111033 $
Temperature: 1.1°C ( 34°F)
Dewpoint: -3.3°C ( 26°F) [RH = 72%]
Pressure (altimeter):30.11 inches Hg (1019.7 mb) [Sea level pressure: 1016.7 mb]
Winds:from the NE (50 degrees) at 44 MPH (38 knots; 19.5 m/s)
Visibility: 8 sm ( 13 km)
Ceiling:11000 feet AGL
Clouds: overcast cloud deck at 11000 feet AGL
QC Flag:automated observation with no human augmentation; SOME DATA ABOVE MAY BE INACCURATE!!!"$" is an indication the sensor requires maintenance.
Text:KGDP 171251Z AUTO 05040KT 7SM OVC100 01/M03 A3007 RMK AO2 PK WND 05043/1214 SLP156 T00111028 $
Temperature: 1.1°C ( 34°F)
Dewpoint: -2.8°C ( 27°F) [RH = 75%]
Pressure (altimeter):30.07 inches Hg (1018.4 mb) [Sea level pressure: 1015.6 mb]
Winds:from the NE (50 degrees) at 46 MPH (40 knots; 20.6 m/s)
Visibility: 7 sm ( 11 km)
Ceiling:10000 feet AGL
Clouds: overcast cloud deck at 10000 feet AGL
QC Flag:automated observation with no human augmentation; SOME DATA ABOVE MAY BE INACCURATE!!!"$" is an indication the sensor requires maintenance.
Text:KGDP 171229Z AUTO 05036KT 9SM SCT022 OVC100 01/M03 A3008 RMK AO2 PK WND 05043/1214 T00111028 $
Temperature: 1.1°C ( 34°F)
Dewpoint: -2.8°C ( 27°F) [RH = 75%]
Pressure (altimeter):30.08 inches Hg (1018.7 mb)
Winds:from the NE (50 degrees) at 41 MPH (36 knots; 18.5 m/s)
Visibility: 9 sm ( 14 km)
Ceiling:10000 feet AGL
Clouds: scattered clouds at 2200 feet AGL, overcast cloud deck at 10000 feet AGL
QC Flag:automated observation with no human augmentation; SOME DATA ABOVE MAY BE INACCURATE!!!"$" is an indication the sensor requires maintenance.
Text:KGDP 171151Z AUTO 05036KT 9SM BKN021 OVC090 01/M03 A3008 RMK AO2 PK WND 06043/1103 SLP156 T00111028 10050 20011 53003 $
Temperature: 1.1°C ( 34°F)
Dewpoint: -2.8°C ( 27°F) [RH = 75%]
Pressure (altimeter):30.08 inches Hg (1018.7 mb) [Sea level pressure: 1015.6 mb]
Winds:from the NE (50 degrees) at 41 MPH (36 knots; 18.5 m/s)
Visibility: 9 sm ( 14 km)
Ceiling:2100 feet AGL
Clouds: broken clouds at 2100 feet AGL, overcast cloud deck at 9000 feet AGL
QC Flag:automated observation with no human augmentation; SOME DATA ABOVE MAY BE INACCURATE!!!"$" is an indication the sensor requires maintenance.
Text:KGDP 171142Z AUTO 05037KT 9SM SCT020 OVC090 01/M03 A3008 RMK AO2 PK WND 06043/1103 T00111028 $
Temperature: 1.1°C ( 34°F)
Dewpoint: -2.8°C ( 27°F) [RH = 75%]
Pressure (altimeter):30.08 inches Hg (1018.7 mb)
Winds:from the NE (50 degrees) at 43 MPH (37 knots; 19.0 m/s)
Visibility: 9 sm ( 14 km)
Ceiling:9000 feet AGL
Clouds: scattered clouds at 2000 feet AGL, overcast cloud deck at 9000 feet AGL
QC Flag:automated observation with no human augmentation; SOME DATA ABOVE MAY BE INACCURATE!!!"$" is an indication the sensor requires maintenance.
Text:KGDP 171051Z AUTO 06036KT 9SM OVC020 02/M03 A3006 RMK AO2 PK WND 05048/1005 SLP148 T00171028 $
Temperature: 1.7°C ( 35°F)
Dewpoint: -2.8°C ( 27°F) [RH = 72%]
Pressure (altimeter):30.06 inches Hg (1018.0 mb) [Sea level pressure: 1014.8 mb]
Winds:from the ENE (60 degrees) at 41 MPH (36 knots; 18.5 m/s)
Visibility: 9 sm ( 14 km)
Ceiling:2000 feet AGL
Clouds: overcast cloud deck at 2000 feet AGL
QC Flag:automated observation with no human augmentation; SOME DATA ABOVE MAY BE INACCURATE!!!"$" is an indication the sensor requires maintenance.
Text:KGDP 170951Z AUTO 05042KT 9SM OVC019 02/M02 A3006 RMK AO2 PK WND 05047/0938 SLP145 T00221022 $
Temperature: 2.2°C ( 36°F)
Dewpoint: -2.2°C ( 28°F) [RH = 73%]
Pressure (altimeter):30.06 inches Hg (1018.0 mb) [Sea level pressure: 1014.5 mb]
Winds:from the NE (50 degrees) at 48 MPH (42 knots; 21.6 m/s)
Visibility: 9 sm ( 14 km)
Ceiling:1900 feet AGL
Clouds: overcast cloud deck at 1900 feet AGL
QC Flag:automated observation with no human augmentation; SOME DATA ABOVE MAY BE INACCURATE!!!"$" is an indication the sensor requires maintenance.